メインページ
METAR-TAF:

METAR-TAF

空港 :

サンフランシスコ, カリフォルニア州, アメリカ合衆国

サンフランシスコ国際空港

緯度: 37-37-11N, 経度: 122-21-53W, 海抜: 3m

現時点の気象観測

当レポートは24分前の22:56(UTC)に作成
西の風 16kt
気温 19°C
湿度 52%
気圧 1019 hPa
視程: 16.1km
高度1200ftの雲はほとんどない
高度4000ftの雲はほとんどない

METAR: KSFO 272256Z 27016KT 10SM FEW012 FEW040 19/09 A3009 RMK AO2 SLP189 T01890089

時間: 16:20 (23:20 UTC)

予報

当レポートは2時間17分前の21:03(UTC)に作成
予報は27日の 21時(UTC)から 28日の 24時(UTC)まで有効
西の風 16kt
視程: 10km
高度2000ftの雲はほとんどない
28日の 0300時(UTC)から
西の風 12kt
視程: 10km
高度1800ftの雲は散在している
28日の 0600時(UTC)から
西の風 9kt
視程: 10km
高度1600ftの千切れ雲あり
28日の 0900時(UTC)から
西の風 6kt
視程: 10km
高度1400ftの曇り
28日の 1600時(UTC)から
西の風 6kt
視程: 10km
高度1700ftの雲は散在している
28日の 2200時(UTC)から
西の風 15kt
視程: 10km
高度2000ftの雲はほとんどない

TAF: KSFO 272103Z 2721/2824 27016KT P6SM FEW020 FM280300 27012KT P6SM SCT018 FM280600 26009KT P6SM BKN016 FM280900 28006KT P6SM OVC014 FM281600 28006KT P6SM SCT017 FM282200 27015KT P6SM FEW020

4,000以上の空港の気象観測と天気予報(METAR報とTAF報)

利用可能な観測所は地図上に黄色い丸と赤い丸で示す。

丸の上にカーソルを重ねると観測所名を参照できる。

次にクリックすると気象観測と天気予報を参照できる。

マップの切り替え:黒色「×」印の緑ボタンをクリックして拡大、「-」印の緑ボタンをクリックして縮小、緑色の三角印をクリックして隣りの地図に切り替え


METAR-TAF: